Overview Statistics Trail Chart Weather Telemetry Raw packets
 

This is the latest recevied weather packets stored in our database for station/object WX0ABE-13. If no packets are shown the sender has not sent any weather packets the latest 10 day(s).

<< 24 25 26 27 28 29 30 >>
Time Temp. Humidity Pressure Rain* Wind** Luminosity Snow
1788192464 25.56° C 53% 1019.8 hPa 0 mm - 338 W/m² -
1788192159 25.56° C 53% 1019.8 hPa 0 mm - 225 W/m² -
1788191859 26.67° C 51% 1019.5 hPa 0 mm - 85 W/m² -
1788191554 25.56° C 51% 1019.5 hPa 0 mm - 245 W/m² -
1788191250 25.56° C 52% 1019.4 hPa 0 mm - 378 W/m² -
1788190946 25.56° C 54% 1019.4 hPa 0 mm - 404 W/m² -
1788190645 24.44° C 56% 1019.3 hPa 0 mm - 384 W/m² -
1788190341 23.89° C 57% 1019.2 hPa 0 mm - 376 W/m² -
1788190037 22.78° C 61% 1019.2 hPa 0 mm - 353 W/m² -
1788189733 22.78° C 61% 1019.3 hPa 0 mm - 321 W/m² -
1788189432 22.22° C 62% 1019.1 hPa 0 mm - 297 W/m² -
1788189127 22.22° C 62% 1019.3 hPa 0 mm - 315 W/m² -
1788188822 21.67° C 63% 1019.3 hPa 0 mm - 120 W/m² -
1788188517 21.11° C 66% 1019.4 hPa 0 mm - 63 W/m² -
1788188216 20.56° C 67% 1019.3 hPa 0 mm - 218 W/m² -
1788187913 20.56° C 69% 1019.8 hPa 0 mm - 124 W/m² -
1788187608 20.56° C 68% 1019.6 hPa 0 mm - 45 W/m² -
1788187304 20.56° C 67% 1019.6 hPa 0 mm - 52 W/m² -
1788187003 20° C 70% 1019.8 hPa 0 mm - 52 W/m² -
1788186699 20° C 70% 1019.9 hPa 0 mm - 74 W/m² -
1788186395 20° C 73% 1019.8 hPa 0 mm - 61 W/m² -
1788186096 19.44° C 74% 1019.8 hPa 0 mm - 57 W/m² -
1788185795 19.44° C 73% 1019.4 hPa 0 mm - 52 W/m² -
1788185490 18.89° C 74% 1019.8 hPa 0 mm - 54 W/m² -
1788185189 18.89° C 76% 1019.6 hPa 0 mm - 53 W/m² -

* Rain latest hour (hover to see other rain measurements)
** Current wind speed in m/s (hover to see current wind gust speed)